createdAt,value
2022-07-30T00:01:41.530Z,4.60
2022-07-30T00:04:09.006Z,4.60
2022-07-30T00:06:38.366Z,4.10
2022-07-30T00:09:05.995Z,4.00
2022-07-30T00:11:33.455Z,3.60
2022-07-30T00:14:01.018Z,3.50
2022-07-30T00:16:28.837Z,3.60
2022-07-30T00:18:56.135Z,4.20
2022-07-30T00:21:36.015Z,4.30
2022-07-30T00:24:09.046Z,4.00
2022-07-30T00:26:37.215Z,4.00
2022-07-30T00:29:07.341Z,4.00
2022-07-30T00:31:35.034Z,3.80
2022-07-30T00:34:02.472Z,3.70
2022-07-30T00:36:30.455Z,4.10
2022-07-30T00:38:59.954Z,3.70
2022-07-30T00:41:27.895Z,3.70
2022-07-30T00:43:56.618Z,3.60
2022-07-30T00:46:25.680Z,3.70
2022-07-30T00:48:53.030Z,3.60
2022-07-30T00:51:23.103Z,3.30
2022-07-30T00:53:53.095Z,3.70
2022-07-30T00:56:20.344Z,3.40
2022-07-30T00:58:48.103Z,3.70
2022-07-30T01:01:15.526Z,3.60
2022-07-30T01:03:43.136Z,3.30
2022-07-30T01:06:14.237Z,3.10
2022-07-30T01:08:44.055Z,3.00
2022-07-30T01:11:13.269Z,2.70
2022-07-30T01:13:44.274Z,2.90
2022-07-30T01:16:12.965Z,2.80
2022-07-30T01:19:01.195Z,2.90
2022-07-30T01:21:37.768Z,2.70
2022-07-30T01:24:27.498Z,3.20
2022-07-30T01:26:55.895Z,2.70
2022-07-30T01:29:24.574Z,2.50
2022-07-30T01:31:57.248Z,2.90
2022-07-30T01:34:25.199Z,2.30
2022-07-30T01:36:53.094Z,2.40
2022-07-30T01:39:21.238Z,2.80
2022-07-30T01:41:50.543Z,2.80
2022-07-30T01:44:23.551Z,2.70
2022-07-30T01:46:53.978Z,2.30
2022-07-30T01:49:22.857Z,2.70
2022-07-30T01:51:51.938Z,2.50
2022-07-30T01:54:19.936Z,2.30
2022-07-30T01:56:48.797Z,2.30
2022-07-30T01:59:19.144Z,2.60
2022-07-30T02:01:48.673Z,2.70
2022-07-30T02:04:17.315Z,2.40
2022-07-30T02:07:04.444Z,2.30
2022-07-30T02:09:38.313Z,2.40
2022-07-30T02:12:30.595Z,2.10
2022-07-30T02:15:11.545Z,2.10
2022-07-30T02:18:10.045Z,2.10
2022-07-30T02:20:39.267Z,2.40
2022-07-30T02:23:10.023Z,2.70
2022-07-30T02:25:39.368Z,2.60
2022-07-30T02:28:10.738Z,2.50
2022-07-30T02:30:42.624Z,2.50
2022-07-30T02:33:13.329Z,2.60
2022-07-30T02:35:41.713Z,2.80
2022-07-30T02:38:10.894Z,2.50
2022-07-30T02:40:41.623Z,2.60
2022-07-30T02:43:09.193Z,2.50
2022-07-30T02:45:38.193Z,3.10
2022-07-30T02:48:08.320Z,2.70
2022-07-30T02:50:40.160Z,2.90
2022-07-30T02:53:10.696Z,2.80
2022-07-30T02:55:39.602Z,2.70
2022-07-30T02:58:07.955Z,3.00
2022-07-30T03:00:36.149Z,2.50
2022-07-30T03:03:06.372Z,2.70
2022-07-30T03:05:38.026Z,2.40
2022-07-30T03:08:06.226Z,2.60
2022-07-30T03:10:34.055Z,2.60
2022-07-30T03:13:02.709Z,2.70
2022-07-30T03:15:30.695Z,2.50
2022-07-30T03:17:59.284Z,2.10
2022-07-30T03:20:32.451Z,2.20
2022-07-30T03:23:02.279Z,2.30
2022-07-30T03:25:30.783Z,2.60
2022-07-30T03:28:00.494Z,2.60
2022-07-30T03:30:28.554Z,2.70
2022-07-30T03:32:57.180Z,2.60
2022-07-30T03:35:26.132Z,2.80
2022-07-30T03:37:55.237Z,2.60
2022-07-30T03:40:23.615Z,2.60
2022-07-30T03:42:51.668Z,2.40
2022-07-30T03:45:21.894Z,2.50
2022-07-30T03:47:49.964Z,2.20
2022-07-30T03:50:17.209Z,2.40
2022-07-30T03:52:46.510Z,2.30
2022-07-30T03:55:17.457Z,2.50
2022-07-30T03:57:51.575Z,2.60
2022-07-30T04:00:24.111Z,2.10
2022-07-30T04:02:52.433Z,2.80
2022-07-30T04:05:41.632Z,2.70
2022-07-30T04:08:11.524Z,2.20
2022-07-30T04:10:38.946Z,2.50
2022-07-30T04:13:43.795Z,2.40
2022-07-30T04:16:40.583Z,2.20
2022-07-30T04:19:27.403Z,2.60
2022-07-30T04:21:55.115Z,2.30
2022-07-30T04:24:23.084Z,2.60
2022-07-30T04:26:50.854Z,2.20
2022-07-30T04:29:22.707Z,2.20
2022-07-30T04:31:55.784Z,2.20
2022-07-30T04:34:49.105Z,2.20
2022-07-30T04:37:21.550Z,2.30
2022-07-30T04:39:55.284Z,2.30
2022-07-30T04:42:24.752Z,2.20
2022-07-30T04:45:02.738Z,2.50
2022-07-30T04:47:36.226Z,2.90
2022-07-30T04:50:23.928Z,2.40
2022-07-30T04:52:53.393Z,2.60
2022-07-30T04:55:26.999Z,2.60
2022-07-30T04:57:54.636Z,2.10
2022-07-30T05:00:23.006Z,2.70
2022-07-30T05:02:51.911Z,2.60
2022-07-30T05:05:21.455Z,2.50
2022-07-30T05:07:49.280Z,2.70
2022-07-30T05:10:18.475Z,2.60
2022-07-30T05:12:46.234Z,5.20
2022-07-30T05:15:15.633Z,2.50
2022-07-30T05:17:42.789Z,2.20
2022-07-30T05:20:10.754Z,2.00
2022-07-30T05:23:04.831Z,2.20
2022-07-30T05:25:32.523Z,2.30
2022-07-30T05:28:12.340Z,3.30
2022-07-30T05:30:39.884Z,2.40
2022-07-30T05:33:15.797Z,2.40
2022-07-30T05:35:43.621Z,2.70
2022-07-30T05:38:11.283Z,2.70
2022-07-30T05:40:57.583Z,2.40
2022-07-30T05:43:57.514Z,2.50
2022-07-30T05:46:25.400Z,1.90
2022-07-30T05:48:53.182Z,2.50
2022-07-30T05:51:21.203Z,2.40
2022-07-30T05:53:49.175Z,2.50
2022-07-30T05:56:22.574Z,2.20
2022-07-30T05:59:10.624Z,2.60
2022-07-30T06:01:58.807Z,1.90
2022-07-30T06:04:30.522Z,2.10
2022-07-30T06:07:03.981Z,2.20
2022-07-30T06:09:37.104Z,2.30
2022-07-30T06:12:05.919Z,2.30
2022-07-30T06:14:33.233Z,2.50
2022-07-30T06:17:00.980Z,2.50
2022-07-30T06:19:35.829Z,2.70
2022-07-30T06:22:06.084Z,2.20
2022-07-30T06:24:37.419Z,2.20
2022-07-30T06:27:10.594Z,1.70
2022-07-30T06:29:39.596Z,2.10
2022-07-30T06:32:07.352Z,2.20
2022-07-30T06:34:34.914Z,1.80
2022-07-30T06:37:02.695Z,2.40
2022-07-30T06:39:57.671Z,1.80
2022-07-30T06:42:33.234Z,2.20
2022-07-30T06:45:36.435Z,2.00
2022-07-30T06:48:24.149Z,1.90
2022-07-30T06:50:52.223Z,2.20
2022-07-30T06:53:19.572Z,1.90
2022-07-30T06:56:25.429Z,1.70
2022-07-30T06:58:59.456Z,1.80
2022-07-30T07:01:45.251Z,2.00
2022-07-30T07:04:13.633Z,2.60
2022-07-30T07:06:41.376Z,2.10
2022-07-30T07:09:09.137Z,2.20
2022-07-30T07:11:42.427Z,2.30
2022-07-30T07:14:12.363Z,1.90
2022-07-30T07:16:39.816Z,2.10
2022-07-30T07:19:59.469Z,2.20
2022-07-30T07:22:13.213Z,1.90
2022-07-30T07:24:40.983Z,2.00
2022-07-30T07:27:15.553Z,2.20
2022-07-30T07:30:05.104Z,2.30
2022-07-30T07:32:35.585Z,1.90
2022-07-30T07:35:03.259Z,2.20
2022-07-30T07:37:31.362Z,2.30
2022-07-30T07:39:58.895Z,2.20
2022-07-30T07:42:26.455Z,1.70
2022-07-30T07:44:53.909Z,2.20
2022-07-30T07:47:21.375Z,2.10
2022-07-30T07:50:01.319Z,2.10
2022-07-30T07:52:29.509Z,2.60
2022-07-30T07:54:57.878Z,2.30
2022-07-30T07:57:27.068Z,2.30
2022-07-30T07:59:56.764Z,2.30
2022-07-30T08:02:27.148Z,1.90
2022-07-30T08:05:06.199Z,2.30
2022-07-30T08:07:52.854Z,2.40
2022-07-30T08:10:55.625Z,2.10
2022-07-30T08:13:53.122Z,2.10
2022-07-30T08:16:39.562Z,2.10
2022-07-30T08:19:45.855Z,2.10
2022-07-30T08:22:18.422Z,2.50
2022-07-30T08:24:46.016Z,2.60
2022-07-30T08:27:13.213Z,2.70
2022-07-30T08:29:40.529Z,2.80
2022-07-30T08:32:07.858Z,2.30
2022-07-30T08:34:36.859Z,2.60
2022-07-30T08:37:05.862Z,2.60
2022-07-30T08:39:34.114Z,2.20
2022-07-30T08:42:03.542Z,2.50
2022-07-30T08:44:34.092Z,2.40
2022-07-30T08:47:03.719Z,1.90
2022-07-30T08:49:50.686Z,2.10
2022-07-30T08:52:22.334Z,2.40
2022-07-30T08:54:58.897Z,2.20
2022-07-30T08:57:26.877Z,2.20
2022-07-30T09:00:00.682Z,2.60
2022-07-30T09:02:31.894Z,2.60
2022-07-30T09:05:09.247Z,2.40
2022-07-30T09:07:37.384Z,1.70
2022-07-30T09:10:07.505Z,2.30
2022-07-30T09:12:39.673Z,2.20
2022-07-30T09:15:19.597Z,2.40
2022-07-30T09:17:46.857Z,2.10
2022-07-30T09:20:14.223Z,1.90
2022-07-30T09:22:50.584Z,2.30
2022-07-30T09:25:46.582Z,2.50
2022-07-30T09:28:34.885Z,2.60
2022-07-30T09:31:14.287Z,2.50
2022-07-30T09:34:00.602Z,2.60
2022-07-30T09:36:46.576Z,2.40
2022-07-30T09:39:39.764Z,2.20
2022-07-30T09:42:26.571Z,2.40
2022-07-30T09:45:13.604Z,2.60
2022-07-30T09:47:50.844Z,2.30
2022-07-30T09:50:30.159Z,3.00
2022-07-30T09:53:12.068Z,2.30
2022-07-30T09:55:43.482Z,3.20
2022-07-30T09:58:26.496Z,2.40
2022-07-30T10:01:01.583Z,2.80
2022-07-30T10:03:48.527Z,4.00
2022-07-30T10:06:38.143Z,3.90
2022-07-30T10:09:30.316Z,2.70
2022-07-30T10:12:02.609Z,2.80
2022-07-30T10:14:34.137Z,3.30
2022-07-30T10:17:10.912Z,4.10
2022-07-30T10:19:41.962Z,4.20
2022-07-30T10:22:50.438Z,4.70
2022-07-30T10:25:54.775Z,4.00
2022-07-30T10:28:52.705Z,5.50
2022-07-30T10:31:48.518Z,5.10
2022-07-30T10:34:07.545Z,4.60
2022-07-30T10:36:36.456Z,5.40
2022-07-30T10:39:04.313Z,4.00
2022-07-30T10:42:28.901Z,5.40
2022-07-30T10:45:19.369Z,3.30
2022-07-30T10:47:48.741Z,3.40
2022-07-30T10:50:19.526Z,3.70
2022-07-30T10:52:52.887Z,4.50
2022-07-30T10:55:37.068Z,3.80
2022-07-30T10:58:15.863Z,3.50
2022-07-30T11:00:53.186Z,3.60
2022-07-30T11:03:40.279Z,3.80
2022-07-30T11:06:24.342Z,3.30
2022-07-30T11:08:57.271Z,3.90
2022-07-30T11:12:01.497Z,3.00
2022-07-30T11:14:15.154Z,3.90
2022-07-30T11:16:44.004Z,3.90
2022-07-30T11:19:55.369Z,4.40
2022-07-30T11:22:37.376Z,3.80
2022-07-30T11:25:13.160Z,4.50
2022-07-30T11:27:49.146Z,3.40
2022-07-30T11:30:17.049Z,3.90
2022-07-30T11:32:48.525Z,3.60
2022-07-30T11:35:17.603Z,4.20
2022-07-30T11:37:58.179Z,3.50
2022-07-30T11:40:31.424Z,3.00
2022-07-30T11:43:18.452Z,3.70
2022-07-30T11:45:47.854Z,3.40
2022-07-30T11:48:18.571Z,4.40
2022-07-30T11:50:48.911Z,4.60
2022-07-30T11:53:19.143Z,5.70
2022-07-30T11:55:52.558Z,5.60
2022-07-30T11:58:29.928Z,6.00
2022-07-30T12:01:01.279Z,5.20
2022-07-30T12:03:32.426Z,5.20
2022-07-30T12:06:07.513Z,5.20
2022-07-30T12:08:43.304Z,10.60
2022-07-30T12:11:11.322Z,6.20
2022-07-30T12:13:44.017Z,4.50
2022-07-30T12:16:17.947Z,5.10
2022-07-30T12:18:47.183Z,5.40
2022-07-30T12:21:18.005Z,4.90
2022-07-30T12:24:07.773Z,5.30
2022-07-30T12:26:35.954Z,4.90
2022-07-30T12:29:07.814Z,4.90
2022-07-30T12:31:38.426Z,5.70
2022-07-30T12:34:21.275Z,5.40
2022-07-30T12:36:50.253Z,5.30
2022-07-30T12:39:23.446Z,6.40
2022-07-30T12:41:52.740Z,8.30
2022-07-30T12:44:44.856Z,7.00
2022-07-30T12:47:29.844Z,6.70
2022-07-30T12:50:02.012Z,6.00
2022-07-30T12:52:38.477Z,5.40
2022-07-30T12:55:12.700Z,5.70
2022-07-30T12:57:52.756Z,5.40
2022-07-30T13:00:20.314Z,5.50
2022-07-30T13:02:48.281Z,5.70
2022-07-30T13:05:16.675Z,5.00
2022-07-30T13:08:00.785Z,5.50
2022-07-30T13:10:31.236Z,5.60
2022-07-30T13:13:00.123Z,6.10
2022-07-30T13:15:27.375Z,5.20
2022-07-30T13:17:54.934Z,5.70
2022-07-30T13:20:22.757Z,5.90
2022-07-30T13:22:50.175Z,5.70
2022-07-30T13:25:18.667Z,4.90
2022-07-30T13:27:45.992Z,4.50
2022-07-30T13:30:13.658Z,6.10
2022-07-30T13:32:40.805Z,6.30
2022-07-30T13:35:08.700Z,6.50
2022-07-30T13:37:38.109Z,5.90
2022-07-30T13:40:07.275Z,6.90
2022-07-30T13:42:34.718Z,6.40
2022-07-30T13:45:01.878Z,6.50
2022-07-30T13:47:30.263Z,5.10
2022-07-30T13:49:58.137Z,6.60
2022-07-30T13:52:25.674Z,5.80
2022-07-30T13:54:54.376Z,7.00
2022-07-30T13:57:22.127Z,7.10
2022-07-30T13:59:49.601Z,6.80
2022-07-30T14:02:17.475Z,7.40
2022-07-30T14:04:45.035Z,6.50
2022-07-30T14:07:12.473Z,5.10
2022-07-30T14:09:44.786Z,6.90
2022-07-30T14:12:16.295Z,7.10
2022-07-30T14:14:44.366Z,6.80
2022-07-30T14:17:11.843Z,6.40
2022-07-30T14:19:39.098Z,5.90
2022-07-30T14:22:06.537Z,6.10
2022-07-30T14:24:33.878Z,5.10
2022-07-30T14:27:01.375Z,4.50
2022-07-30T14:29:29.126Z,5.80
2022-07-30T14:31:57.703Z,5.00
2022-07-30T14:34:25.355Z,4.50
2022-07-30T14:36:53.643Z,4.30
2022-07-30T14:39:21.602Z,3.60
2022-07-30T14:41:52.478Z,3.30
2022-07-30T14:44:24.800Z,3.00
2022-07-30T14:46:52.939Z,2.90
2022-07-30T14:49:22.838Z,2.80
2022-07-30T14:51:51.677Z,3.20
2022-07-30T14:54:21.496Z,2.50
2022-07-30T14:56:49.417Z,2.30
2022-07-30T14:59:17.423Z,2.70
2022-07-30T15:01:44.839Z,2.60
2022-07-30T15:04:13.085Z,2.50
2022-07-30T15:06:44.197Z,2.20
2022-07-30T15:09:15.452Z,2.30
2022-07-30T15:12:08.055Z,2.40
2022-07-30T15:14:32.162Z,2.30
2022-07-30T15:17:03.922Z,2.50
2022-07-30T15:19:31.889Z,2.40
2022-07-30T15:22:02.975Z,9.90
2022-07-30T15:24:31.315Z,3.70
2022-07-30T15:26:58.760Z,4.00
2022-07-30T15:29:28.477Z,4.50
2022-07-30T15:31:56.070Z,4.00
2022-07-30T15:34:23.502Z,4.50
2022-07-30T15:36:51.783Z,4.00
2022-07-30T15:39:19.119Z,4.10
2022-07-30T15:41:46.579Z,3.20
2022-07-30T15:44:14.343Z,3.40
2022-07-30T15:46:41.596Z,2.90
2022-07-30T15:49:10.296Z,2.80
2022-07-30T15:51:38.320Z,2.60
2022-07-30T15:54:07.343Z,3.00
2022-07-30T15:56:35.416Z,2.80
2022-07-30T15:59:02.670Z,2.60
2022-07-30T16:01:30.153Z,2.60
2022-07-30T16:03:57.476Z,3.20
2022-07-30T16:06:26.056Z,2.40
2022-07-30T16:08:54.284Z,2.70
2022-07-30T16:11:21.615Z,2.40
2022-07-30T16:13:50.316Z,2.60
2022-07-30T16:16:17.846Z,2.50
2022-07-30T16:18:45.085Z,3.10
2022-07-30T16:21:15.015Z,3.50
2022-07-30T16:23:44.335Z,3.60
2022-07-30T16:26:12.584Z,3.90
2022-07-30T16:28:40.340Z,3.50
2022-07-30T16:31:08.023Z,4.40
2022-07-30T16:33:38.680Z,3.70
2022-07-30T16:36:09.438Z,4.50
2022-07-30T16:38:37.542Z,4.70
2022-07-30T16:41:05.622Z,3.60
2022-07-30T16:43:33.791Z,3.70
2022-07-30T16:46:01.431Z,4.80
2022-07-30T16:48:31.434Z,4.20
2022-07-30T16:50:59.586Z,3.10
2022-07-30T16:53:27.198Z,4.30
2022-07-30T16:55:56.951Z,3.50
2022-07-30T16:58:30.849Z,4.10
2022-07-30T17:00:58.818Z,3.80
2022-07-30T17:03:26.353Z,5.00
2022-07-30T17:05:53.693Z,4.10
2022-07-30T17:08:24.868Z,3.80
2022-07-30T17:10:54.155Z,3.80
2022-07-30T17:13:22.021Z,4.60
2022-07-30T17:15:49.367Z,4.80
2022-07-30T17:18:17.030Z,4.30
2022-07-30T17:20:45.000Z,3.90
2022-07-30T17:23:13.796Z,3.30
2022-07-30T17:25:41.149Z,5.10
2022-07-30T17:28:08.531Z,4.30
2022-07-30T17:30:35.963Z,4.20
2022-07-30T17:33:05.354Z,3.70
2022-07-30T17:35:34.100Z,4.60
2022-07-30T17:38:02.019Z,3.40
2022-07-30T17:40:31.482Z,4.10
2022-07-30T17:43:04.348Z,3.80
2022-07-30T17:45:36.952Z,3.20
2022-07-30T17:48:05.722Z,4.80
2022-07-30T17:50:34.349Z,3.90
2022-07-30T17:53:04.033Z,4.10
2022-07-30T17:55:31.833Z,4.00
2022-07-30T17:57:59.852Z,2.80
2022-07-30T18:00:27.243Z,2.80
2022-07-30T18:02:54.504Z,2.60
2022-07-30T18:05:22.056Z,3.80
2022-07-30T18:07:49.622Z,5.60
2022-07-30T18:10:17.186Z,4.00
2022-07-30T18:12:48.999Z,3.00
2022-07-30T18:15:18.329Z,3.70
2022-07-30T18:17:46.242Z,3.00
2022-07-30T18:20:14.493Z,2.90
2022-07-30T18:22:42.176Z,2.60
2022-07-30T18:25:18.015Z,2.70
2022-07-30T18:27:47.795Z,2.50
2022-07-30T18:30:15.844Z,2.80
2022-07-30T18:32:44.249Z,2.60
2022-07-30T18:35:14.690Z,2.60
2022-07-30T18:37:43.566Z,2.60
2022-07-30T18:40:13.088Z,2.00
2022-07-30T18:42:40.351Z,3.30
2022-07-30T18:45:08.423Z,2.80
2022-07-30T18:47:35.645Z,2.80
2022-07-30T18:50:03.032Z,2.80
2022-07-30T18:52:30.279Z,2.60
2022-07-30T18:54:57.623Z,3.20
2022-07-30T18:57:24.903Z,3.40
2022-07-30T18:59:52.235Z,2.20
2022-07-30T19:02:19.768Z,2.00
2022-07-30T19:04:47.155Z,2.70
2022-07-30T19:07:14.284Z,2.00
2022-07-30T19:09:43.395Z,2.40
2022-07-30T19:12:10.947Z,2.40
2022-07-30T19:14:38.211Z,2.90
2022-07-30T19:17:14.141Z,2.70
2022-07-30T19:19:43.446Z,2.50
2022-07-30T19:22:10.796Z,3.00
2022-07-30T19:24:38.479Z,1.80
2022-07-30T19:27:07.495Z,1.90
2022-07-30T19:29:37.361Z,2.20
2022-07-30T19:32:05.333Z,1.70
2022-07-30T19:34:32.898Z,1.80
2022-07-30T19:37:00.039Z,1.50
2022-07-30T19:39:27.514Z,2.20
2022-07-30T19:41:55.475Z,2.10
2022-07-30T19:44:22.936Z,2.20
2022-07-30T19:46:51.883Z,1.90
2022-07-30T19:49:21.853Z,1.70
2022-07-30T19:52:10.950Z,1.60
2022-07-30T19:54:38.475Z,1.50
2022-07-30T19:57:05.836Z,1.70
2022-07-30T19:59:45.472Z,2.10
2022-07-30T20:02:22.596Z,1.70
2022-07-30T20:04:49.963Z,1.80
2022-07-30T20:07:18.595Z,1.70
2022-07-30T20:09:48.461Z,2.20
2022-07-30T20:12:17.139Z,1.70
2022-07-30T20:14:44.628Z,2.20
2022-07-30T20:17:14.491Z,2.00
2022-07-30T20:19:47.610Z,2.30
2022-07-30T20:22:19.854Z,1.90
2022-07-30T20:24:51.490Z,1.90
2022-07-30T20:27:35.803Z,2.00
2022-07-30T20:30:09.357Z,2.00
2022-07-30T20:32:37.999Z,1.80
2022-07-30T20:35:08.168Z,1.70
2022-07-30T20:37:40.315Z,1.80
2022-07-30T20:40:22.445Z,2.20
2022-07-30T20:42:50.578Z,1.50
2022-07-30T20:45:17.936Z,2.10
2022-07-30T20:47:55.657Z,1.90
2022-07-30T20:50:30.730Z,2.00
2022-07-30T20:53:01.202Z,2.00
2022-07-30T20:55:28.981Z,2.30
2022-07-30T20:58:06.936Z,2.00
2022-07-30T21:00:42.350Z,2.20
2022-07-30T21:03:21.234Z,1.70
2022-07-30T21:05:52.418Z,2.10
2022-07-30T21:08:25.071Z,1.70
2022-07-30T21:10:55.245Z,1.90
2022-07-30T21:13:29.574Z,2.00
2022-07-30T21:16:02.583Z,1.80
2022-07-30T21:18:32.941Z,1.90
2022-07-30T21:21:01.259Z,1.80
2022-07-30T21:23:32.389Z,1.90
2022-07-30T21:26:04.954Z,2.00
2022-07-30T21:28:36.352Z,1.90
2022-07-30T21:31:07.022Z,1.70
2022-07-30T21:33:37.249Z,1.90
2022-07-30T21:36:10.768Z,2.10
2022-07-30T21:38:41.944Z,1.50
2022-07-30T21:41:14.448Z,2.10
2022-07-30T21:43:45.713Z,1.70
2022-07-30T21:46:24.976Z,1.50
2022-07-30T21:48:58.404Z,1.70
2022-07-30T21:51:26.949Z,1.50
2022-07-30T21:53:54.601Z,1.90
2022-07-30T21:56:25.624Z,2.10
2022-07-30T21:58:53.412Z,2.00
2022-07-30T22:01:22.724Z,1.80
2022-07-30T22:04:04.212Z,1.80
2022-07-30T22:06:41.420Z,2.10
2022-07-30T22:12:09.751Z,1.90
2022-07-30T22:14:42.032Z,1.50
2022-07-30T22:17:22.632Z,1.70
2022-07-30T22:19:53.911Z,1.50
2022-07-30T22:22:27.650Z,1.80
2022-07-30T22:24:57.267Z,2.10
2022-07-30T22:27:25.786Z,2.10
2022-07-30T22:29:55.748Z,1.30
2022-07-30T22:32:24.381Z,1.80
2022-07-30T22:34:52.905Z,2.00
2022-07-30T22:37:21.546Z,2.00
2022-07-30T22:39:50.913Z,2.10
2022-07-30T22:42:36.633Z,1.80
2022-07-30T22:45:16.891Z,1.90
2022-07-30T22:48:10.242Z,2.00
2022-07-30T22:50:53.316Z,2.10
2022-07-30T22:54:10.453Z,2.30
2022-07-30T22:56:14.340Z,2.10
2022-07-30T22:58:43.440Z,1.80
2022-07-30T23:01:11.010Z,2.40
2022-07-30T23:03:38.432Z,2.40
2022-07-30T23:06:05.577Z,2.80
2022-07-30T23:08:33.889Z,2.70
2022-07-30T23:11:01.411Z,2.20
2022-07-30T23:12:33.097Z,2.50
2022-07-30T23:13:29.440Z,2.30
2022-07-30T23:15:56.719Z,1.80
2022-07-30T23:18:24.091Z,2.00
2022-07-30T23:20:51.190Z,1.90
2022-07-30T23:23:18.342Z,2.90
2022-07-30T23:25:45.567Z,2.40
2022-07-30T23:28:12.926Z,2.40
2022-07-30T23:30:39.982Z,2.90
2022-07-30T23:33:07.132Z,2.60
2022-07-30T23:35:34.295Z,2.80
2022-07-30T23:38:01.553Z,2.70
2022-07-30T23:40:28.858Z,2.70
2022-07-30T23:42:56.453Z,2.40
2022-07-30T23:45:23.606Z,2.90
2022-07-30T23:48:00.942Z,3.10
2022-07-30T23:50:32.487Z,3.30
2022-07-30T23:53:01.040Z,3.00
2022-07-30T23:55:29.153Z,3.50
2022-07-30T23:57:56.661Z,3.40
